sensor_id;sensor_type;location;lat;lon;timestamp;temperature;humidity
63960;DHT22;50136;51.374;0.096;2022-07-23T00:00:48;17.10;99.90
63960;DHT22;50136;51.374;0.096;2022-07-23T00:10:51;17.10;99.90
63960;DHT22;50136;51.374;0.096;2022-07-23T00:20:53;17.10;99.90
63960;DHT22;50136;51.374;0.096;2022-07-23T00:30:56;17.10;99.90
63960;DHT22;50136;51.374;0.096;2022-07-23T00:40:58;17.10;99.90
63960;DHT22;50136;51.374;0.096;2022-07-23T00:51:02;17.20;99.90
63960;DHT22;50136;51.374;0.096;2022-07-23T01:01:04;17.20;99.90
63960;DHT22;50136;51.374;0.096;2022-07-23T01:11:08;17.20;99.90
63960;DHT22;50136;51.374;0.096;2022-07-23T01:21:11;17.20;99.90
63960;DHT22;50136;51.374;0.096;2022-07-23T01:31:15;17.10;99.90
63960;DHT22;50136;51.374;0.096;2022-07-23T01:41:17;16.90;99.90
63960;DHT22;50136;51.374;0.096;2022-07-23T01:51:21;16.80;99.90
63960;DHT22;50136;51.374;0.096;2022-07-23T02:01:23;16.90;99.90
63960;DHT22;50136;51.374;0.096;2022-07-23T02:11:26;16.90;99.90
63960;DHT22;50136;51.374;0.096;2022-07-23T02:21:28;16.80;99.90
63960;DHT22;50136;51.374;0.096;2022-07-23T02:31:32;16.80;99.90
63960;DHT22;50136;51.374;0.096;2022-07-23T02:41:34;16.90;99.90
63960;DHT22;50136;51.374;0.096;2022-07-23T02:51:37;17.00;99.90
63960;DHT22;50136;51.374;0.096;2022-07-23T03:01:39;17.00;99.90
63960;DHT22;50136;51.374;0.096;2022-07-23T03:11:43;16.90;99.90
63960;DHT22;50136;51.374;0.096;2022-07-23T03:21:45;16.90;99.90
63960;DHT22;50136;51.374;0.096;2022-07-23T03:31:48;16.80;99.90
63960;DHT22;50136;51.374;0.096;2022-07-23T03:41:50;16.60;99.90
63960;DHT22;50136;51.374;0.096;2022-07-23T03:51:53;16.50;99.90
63960;DHT22;50136;51.374;0.096;2022-07-23T04:01:55;16.50;99.90
63960;DHT22;50136;51.374;0.096;2022-07-23T04:11:59;16.50;99.90
63960;DHT22;50136;51.374;0.096;2022-07-23T04:22:01;16.50;99.90
63960;DHT22;50136;51.374;0.096;2022-07-23T04:32:05;16.60;99.90
63960;DHT22;50136;51.374;0.096;2022-07-23T04:42:07;16.60;99.90
63960;DHT22;50136;51.374;0.096;2022-07-23T04:52:10;16.60;99.90
63960;DHT22;50136;51.374;0.096;2022-07-23T05:02:12;16.60;99.90
63960;DHT22;50136;51.374;0.096;2022-07-23T05:12:16;16.50;99.90
63960;DHT22;50136;51.374;0.096;2022-07-23T05:22:17;16.50;99.90
63960;DHT22;50136;51.374;0.096;2022-07-23T05:32:24;16.50;99.90
63960;DHT22;50136;51.374;0.096;2022-07-23T05:42:25;16.60;99.90
63960;DHT22;50136;51.374;0.096;2022-07-23T05:52:29;16.90;99.90
63960;DHT22;50136;51.374;0.096;2022-07-23T06:02:31;17.30;99.90
63960;DHT22;50136;51.374;0.096;2022-07-23T06:12:34;17.50;99.90
63960;DHT22;50136;51.374;0.096;2022-07-23T06:22:37;17.70;99.90
63960;DHT22;50136;51.374;0.096;2022-07-23T06:32:40;17.90;99.90
63960;DHT22;50136;51.374;0.096;2022-07-23T06:42:42;18.10;99.90
63960;DHT22;50136;51.374;0.096;2022-07-23T06:52:46;18.30;99.90
63960;DHT22;50136;51.374;0.096;2022-07-23T07:02:48;18.60;99.90
63960;DHT22;50136;51.374;0.096;2022-07-23T07:12:51;19.00;99.90
63960;DHT22;50136;51.374;0.096;2022-07-23T07:22:53;19.50;99.90
63960;DHT22;50136;51.374;0.096;2022-07-23T07:32:56;19.80;99.90
63960;DHT22;50136;51.374;0.096;2022-07-23T07:42:59;19.90;99.90
63960;DHT22;50136;51.374;0.096;2022-07-23T07:53:02;20.20;99.90
63960;DHT22;50136;51.374;0.096;2022-07-23T08:03:04;20.50;99.90
63960;DHT22;50136;51.374;0.096;2022-07-23T08:13:08;21.00;99.90
63960;DHT22;50136;51.374;0.096;2022-07-23T08:23:13;23.60;97.60
63960;DHT22;50136;51.374;0.096;2022-07-23T08:33:18;25.30;94.40
63960;DHT22;50136;51.374;0.096;2022-07-23T08:43:35;26.80;88.90
63960;DHT22;50136;51.374;0.096;2022-07-23T08:53:38;28.40;88.50
63960;DHT22;50136;51.374;0.096;2022-07-23T09:03:41;29.10;80.70
63960;DHT22;50136;51.374;0.096;2022-07-23T09:13:47;29.30;78.80
63960;DHT22;50136;51.374;0.096;2022-07-23T09:23:54;29.90;71.20
63960;DHT22;50136;51.374;0.096;2022-07-23T09:34:07;30.10;74.00
63960;DHT22;50136;51.374;0.096;2022-07-23T09:44:15;30.60;67.10
63960;DHT22;50136;51.374;0.096;2022-07-23T09:54:30;31.20;70.60
63960;DHT22;50136;51.374;0.096;2022-07-23T10:27:01;31.90;59.60
63960;DHT22;50136;51.374;0.096;2022-07-23T10:37:36;31.50;60.90
63960;DHT22;50136;51.374;0.096;2022-07-23T10:58:02;30.50;59.70
63960;DHT22;50136;51.374;0.096;2022-07-23T11:08:16;30.80;60.80
63960;DHT22;50136;51.374;0.096;2022-07-23T11:19:05;30.30;59.30
63960;DHT22;50136;51.374;0.096;2022-07-23T11:40:25;29.90;58.10
63960;DHT22;50136;51.374;0.096;2022-07-23T11:50:28;30.30;59.50
63960;DHT22;50136;51.374;0.096;2022-07-23T12:01:09;29.70;59.80
63960;DHT22;50136;51.374;0.096;2022-07-23T12:11:21;29.70;58.90
63960;DHT22;50136;51.374;0.096;2022-07-23T12:32:43;28.90;60.90
63960;DHT22;50136;51.374;0.096;2022-07-23T12:42:46;29.20;60.00
63960;DHT22;50136;51.374;0.096;2022-07-23T12:52:51;29.60;60.90
63960;DHT22;50136;51.374;0.096;2022-07-23T13:03:02;29.30;60.40
63960;DHT22;50136;51.374;0.096;2022-07-23T13:13:09;29.20;60.00
63960;DHT22;50136;51.374;0.096;2022-07-23T13:23:17;28.90;60.00
63960;DHT22;50136;51.374;0.096;2022-07-23T13:33:22;28.70;61.40
63960;DHT22;50136;51.374;0.096;2022-07-23T13:43:25;29.10;60.80
63960;DHT22;50136;51.374;0.096;2022-07-23T13:53:28;29.00;60.90
63960;DHT22;50136;51.374;0.096;2022-07-23T14:03:30;29.10;62.10
63960;DHT22;50136;51.374;0.096;2022-07-23T14:13:34;28.90;62.20
63960;DHT22;50136;51.374;0.096;2022-07-23T14:23:37;29.00;62.00
63960;DHT22;50136;51.374;0.096;2022-07-23T14:33:41;28.50;63.30
63960;DHT22;50136;51.374;0.096;2022-07-23T14:55:18;28.60;65.30
63960;DHT22;50136;51.374;0.096;2022-07-23T15:15:30;27.90;67.10
63960;DHT22;50136;51.374;0.096;2022-07-23T15:25:32;27.90;67.70
63960;DHT22;50136;51.374;0.096;2022-07-23T15:35:37;28.10;68.00
63960;DHT22;50136;51.374;0.096;2022-07-23T15:45:40;28.10;68.80
63960;DHT22;50136;51.374;0.096;2022-07-23T15:55:58;27.80;69.90
63960;DHT22;50136;51.374;0.096;2022-07-23T16:06:05;27.70;71.00
63960;DHT22;50136;51.374;0.096;2022-07-23T16:16:20;27.60;71.70
63960;DHT22;50136;51.374;0.096;2022-07-23T16:26:22;27.80;71.40
63960;DHT22;50136;51.374;0.096;2022-07-23T16:36:26;27.30;72.20
63960;DHT22;50136;51.374;0.096;2022-07-23T16:46:28;27.20;72.90
63960;DHT22;50136;51.374;0.096;2022-07-23T16:56:32;27.20;73.90
63960;DHT22;50136;51.374;0.096;2022-07-23T17:06:40;26.90;74.70
63960;DHT22;50136;51.374;0.096;2022-07-23T17:16:43;26.70;74.80
63960;DHT22;50136;51.374;0.096;2022-07-23T17:26:46;26.30;75.80
63960;DHT22;50136;51.374;0.096;2022-07-23T17:36:51;25.60;77.00
63960;DHT22;50136;51.374;0.096;2022-07-23T17:46:53;25.10;78.30
63960;DHT22;50136;51.374;0.096;2022-07-23T17:56:57;25.10;78.50
63960;DHT22;50136;51.374;0.096;2022-07-23T18:07:05;24.70;80.20
63960;DHT22;50136;51.374;0.096;2022-07-23T18:17:12;24.30;81.50
63960;DHT22;50136;51.374;0.096;2022-07-23T18:27:14;24.20;83.30
63960;DHT22;50136;51.374;0.096;2022-07-23T18:37:17;23.90;83.30
63960;DHT22;50136;51.374;0.096;2022-07-23T18:47:39;23.60;84.80
63960;DHT22;50136;51.374;0.096;2022-07-23T18:57:43;23.30;86.40
63960;DHT22;50136;51.374;0.096;2022-07-23T19:07:45;22.80;89.00
63960;DHT22;50136;51.374;0.096;2022-07-23T19:17:48;22.70;89.90
63960;DHT22;50136;51.374;0.096;2022-07-23T19:27:50;22.40;90.70
63960;DHT22;50136;51.374;0.096;2022-07-23T19:37:53;22.20;90.90
63960;DHT22;50136;51.374;0.096;2022-07-23T19:47:55;22.10;91.60
63960;DHT22;50136;51.374;0.096;2022-07-23T19:57:59;21.90;92.40
63960;DHT22;50136;51.374;0.096;2022-07-23T20:08:01;21.60;93.80
63960;DHT22;50136;51.374;0.096;2022-07-23T20:18:04;21.40;94.50
63960;DHT22;50136;51.374;0.096;2022-07-23T20:28:06;21.30;95.30
63960;DHT22;50136;51.374;0.096;2022-07-23T20:38:10;21.10;96.50
63960;DHT22;50136;51.374;0.096;2022-07-23T20:48:22;20.90;97.40
63960;DHT22;50136;51.374;0.096;2022-07-23T20:58:31;20.80;99.50
63960;DHT22;50136;51.374;0.096;2022-07-23T21:08:33;20.60;99.50
63960;DHT22;50136;51.374;0.096;2022-07-23T21:18:36;20.50;99.90
63960;DHT22;50136;51.374;0.096;2022-07-23T21:28:38;20.40;99.90
63960;DHT22;50136;51.374;0.096;2022-07-23T21:38:42;20.30;99.90
63960;DHT22;50136;51.374;0.096;2022-07-23T21:48:44;20.20;99.90
63960;DHT22;50136;51.374;0.096;2022-07-23T21:58:47;20.00;99.90
63960;DHT22;50136;51.374;0.096;2022-07-23T22:08:49;19.90;99.90
63960;DHT22;50136;51.374;0.096;2022-07-23T22:18:53;19.80;99.90
63960;DHT22;50136;51.374;0.096;2022-07-23T22:28:55;19.60;99.90
63960;DHT22;50136;51.374;0.096;2022-07-23T22:38:58;19.50;99.90
63960;DHT22;50136;51.374;0.096;2022-07-23T22:49:01;19.40;99.90
63960;DHT22;50136;51.374;0.096;2022-07-23T22:59:05;19.20;99.90
63960;DHT22;50136;51.374;0.096;2022-07-23T23:09:27;19.20;99.90
63960;DHT22;50136;51.374;0.096;2022-07-23T23:19:30;19.10;99.90
63960;DHT22;50136;51.374;0.096;2022-07-23T23:29:32;19.10;99.90
63960;DHT22;50136;51.374;0.096;2022-07-23T23:39:35;19.10;99.90
63960;DHT22;50136;51.374;0.096;2022-07-23T23:49:37;19.00;99.90
63960;DHT22;50136;51.374;0.096;2022-07-23T23:59:41;18.90;99.90
